createdAt,value
2024-03-08T00:01:20.722Z,35.05
2024-03-08T00:03:23.824Z,35.53
2024-03-08T00:05:26.422Z,35.47
2024-03-08T00:07:29.583Z,35.95
2024-03-08T00:09:32.149Z,39.03
2024-03-08T00:11:37.182Z,36.72
2024-03-08T00:13:39.950Z,35.22
2024-03-08T00:15:43.136Z,41.55
2024-03-08T00:17:46.675Z,41.75
2024-03-08T00:19:49.983Z,45.15
2024-03-08T00:21:52.867Z,41.15
2024-03-08T00:23:58.003Z,43.95
2024-03-08T00:26:00.746Z,43.63
2024-03-08T00:28:03.330Z,29.95
2024-03-08T00:30:07.332Z,40.65
2024-03-08T00:32:10.640Z,45.25
2024-03-08T00:34:13.521Z,39.85
2024-03-08T00:36:16.463Z,42.13
2024-03-08T00:38:20.530Z,37.58
2024-03-08T00:40:23.985Z,41.80
2024-03-08T00:42:26.457Z,45.65
2024-03-08T00:44:28.963Z,33.17
2024-03-08T00:46:33.112Z,38.35
2024-03-08T00:48:36.086Z,33.88
2024-03-08T00:50:38.604Z,41.15
2024-03-08T00:52:41.180Z,42.30
2024-03-08T00:54:45.149Z,38.33
2024-03-08T00:56:47.768Z,41.20
2024-03-08T00:58:50.430Z,43.63
2024-03-08T01:00:52.970Z,41.70
2024-03-08T01:02:55.372Z,37.17
2024-03-08T01:04:57.629Z,39.80
2024-03-08T01:07:00.815Z,42.13
2024-03-08T01:09:03.801Z,40.30
2024-03-08T01:11:06.520Z,38.88
2024-03-08T01:13:09.138Z,42.35
2024-03-08T01:15:14.925Z,44.75
2024-03-08T01:17:17.469Z,45.88
2024-03-08T01:19:20.012Z,42.42
2024-03-08T01:21:24.049Z,50.05
2024-03-08T01:23:26.469Z,43.28
2024-03-08T01:25:29.326Z,45.25
2024-03-08T01:27:32.465Z,51.28
2024-03-08T01:29:34.886Z,41.50
2024-03-08T01:31:38.214Z,46.83
2024-03-08T01:33:41.731Z,49.67
2024-03-08T01:35:44.623Z,49.25
2024-03-08T01:37:46.963Z,49.75
2024-03-08T01:39:49.784Z,45.17
2024-03-08T01:41:52.396Z,47.35
2024-03-08T01:43:55.565Z,46.63
2024-03-08T01:46:01.599Z,47.58
2024-03-08T01:48:04.304Z,46.97
2024-03-08T01:50:10.349Z,51.30
2024-03-08T01:52:12.885Z,47.05
2024-03-08T01:54:18.016Z,46.10
2024-03-08T01:56:21.119Z,51.75
2024-03-08T01:58:24.432Z,44.83
2024-03-08T02:00:28.017Z,47.47
2024-03-08T02:02:36.286Z,46.50
2024-03-08T02:04:40.073Z,47.00
2024-03-08T02:06:42.733Z,48.53
2024-03-08T02:08:46.795Z,48.90
2024-03-08T02:10:50.927Z,53.72
2024-03-08T02:12:54.300Z,46.45
2024-03-08T02:14:56.926Z,47.70
2024-03-08T02:17:03.510Z,44.75
2024-03-08T02:19:06.116Z,54.00
2024-03-08T02:21:10.183Z,45.78
2024-03-08T02:23:13.050Z,51.92
2024-03-08T02:25:16.144Z,48.28
2024-03-08T02:27:26.177Z,46.53
2024-03-08T02:29:29.144Z,48.42
2024-03-08T02:31:31.910Z,47.92
2024-03-08T02:33:34.544Z,44.08
2024-03-08T02:35:38.147Z,48.05
2024-03-08T02:37:40.553Z,50.65
2024-03-08T02:39:43.383Z,50.80
2024-03-08T02:41:45.973Z,45.55
2024-03-08T02:43:49.095Z,52.72
2024-03-08T02:45:52.209Z,45.75
2024-03-08T02:47:55.357Z,47.70
2024-03-08T02:49:58.481Z,44.22
2024-03-08T02:52:01.101Z,49.80
2024-03-08T02:54:05.515Z,48.10
2024-03-08T02:56:10.663Z,46.30
2024-03-08T02:58:13.800Z,52.65
2024-03-08T03:00:17.250Z,41.78
2024-03-08T03:02:20.046Z,51.70
2024-03-08T03:04:22.574Z,58.15
2024-03-08T03:06:25.043Z,52.78
2024-03-08T03:08:27.845Z,45.72
2024-03-08T03:10:30.330Z,49.90
2024-03-08T03:12:35.188Z,49.63
2024-03-08T03:14:39.866Z,49.22
2024-03-08T03:16:44.991Z,57.17
2024-03-08T03:18:47.862Z,47.92
2024-03-08T03:20:51.201Z,47.42
2024-03-08T03:22:54.205Z,47.03
2024-03-08T03:24:59.472Z,42.78
2024-03-08T03:27:01.813Z,54.15
2024-03-08T03:29:05.131Z,49.72
2024-03-08T03:31:10.627Z,46.97
2024-03-08T03:33:14.319Z,49.45
2024-03-08T03:35:17.464Z,45.95
2024-03-08T03:37:21.420Z,52.45
2024-03-08T03:39:24.609Z,52.15
2024-03-08T03:41:27.609Z,48.78
2024-03-08T03:43:30.116Z,51.70
2024-03-08T03:45:37.215Z,55.45
2024-03-08T03:47:40.760Z,47.63
2024-03-08T03:49:44.170Z,45.83
2024-03-08T03:51:47.036Z,45.67
2024-03-08T03:53:50.091Z,48.90
2024-03-08T03:55:53.545Z,49.60
2024-03-08T03:57:57.153Z,49.78
2024-03-08T03:59:59.983Z,48.95
2024-03-08T04:02:02.565Z,50.90
2024-03-08T04:04:06.621Z,49.40
2024-03-08T04:06:10.139Z,54.22
2024-03-08T04:08:13.198Z,52.78
2024-03-08T04:10:16.003Z,50.40
2024-03-08T04:12:18.597Z,47.72
2024-03-08T04:14:21.022Z,47.53
2024-03-08T04:16:23.625Z,48.88
2024-03-08T04:18:26.729Z,47.80
2024-03-08T04:20:29.332Z,50.78
2024-03-08T04:22:32.295Z,49.17
2024-03-08T04:24:35.246Z,46.65
2024-03-08T04:26:38.087Z,52.53
2024-03-08T04:28:41.102Z,46.92
2024-03-08T04:30:43.565Z,43.30
2024-03-08T04:32:48.011Z,46.65
2024-03-08T04:34:50.855Z,47.28
2024-03-08T04:36:53.619Z,49.30
2024-03-08T04:38:56.575Z,46.17
2024-03-08T04:41:00.773Z,40.17
2024-03-08T04:43:04.596Z,46.53
2024-03-08T04:45:09.899Z,54.65
2024-03-08T04:47:13.289Z,49.83
2024-03-08T04:49:16.445Z,52.95
2024-03-08T04:51:21.177Z,46.53
2024-03-08T04:53:23.580Z,50.75
2024-03-08T04:55:26.305Z,42.70
2024-03-08T04:57:29.498Z,45.60
2024-03-08T04:59:32.091Z,43.72
2024-03-08T05:01:34.794Z,43.67
2024-03-08T05:03:37.405Z,50.53
2024-03-08T05:05:39.779Z,42.90
2024-03-08T05:07:42.346Z,49.95
2024-03-08T05:09:52.918Z,48.03
2024-03-08T05:11:55.972Z,49.92
2024-03-08T05:14:00.343Z,48.10
2024-03-08T05:16:02.992Z,46.47
2024-03-08T05:18:05.838Z,46.45
2024-03-08T05:20:09.737Z,50.20
2024-03-08T05:22:12.577Z,48.22
2024-03-08T05:24:17.840Z,46.10
2024-03-08T05:26:20.612Z,42.33
2024-03-08T05:28:23.057Z,49.72
2024-03-08T05:30:25.763Z,50.38
2024-03-08T05:32:30.563Z,45.55
2024-03-08T05:34:34.666Z,44.63
2024-03-08T05:36:37.352Z,47.45
2024-03-08T05:38:39.817Z,51.47
2024-03-08T05:40:44.702Z,43.97
2024-03-08T05:42:47.977Z,50.83
2024-03-08T05:44:51.157Z,52.90
2024-03-08T05:46:54.670Z,46.35
2024-03-08T05:48:57.448Z,43.22
2024-03-08T05:51:01.826Z,48.47
2024-03-08T05:53:04.675Z,45.38
2024-03-08T05:55:09.306Z,52.15
2024-03-08T05:57:12.579Z,45.88
2024-03-08T05:59:15.359Z,46.42
2024-03-08T06:01:18.263Z,50.55
2024-03-08T06:03:23.309Z,41.03
2024-03-08T06:05:26.711Z,46.95
2024-03-08T06:07:29.416Z,53.85
2024-03-08T06:09:32.311Z,48.75
2024-03-08T06:11:34.925Z,52.03
2024-03-08T06:13:38.132Z,46.33
2024-03-08T06:15:41.130Z,50.10
2024-03-08T06:17:44.297Z,46.53
2024-03-08T06:19:48.071Z,46.75
2024-03-08T06:21:50.834Z,42.63
2024-03-08T06:23:56.659Z,45.70
2024-03-08T06:25:59.566Z,41.63
2024-03-08T06:28:02.138Z,45.70
2024-03-08T06:30:06.372Z,41.50
2024-03-08T06:32:09.064Z,50.00
2024-03-08T06:34:13.141Z,44.80
2024-03-08T06:36:20.579Z,46.10
2024-03-08T06:40:26.246Z,42.50
2024-03-08T06:42:36.778Z,47.20
2024-03-08T06:44:43.627Z,50.28
2024-03-08T06:46:46.509Z,44.55
2024-03-08T06:48:51.300Z,42.50
2024-03-08T06:50:54.099Z,50.38
2024-03-08T06:52:56.842Z,35.85
2024-03-08T06:54:59.497Z,45.85
2024-03-08T06:57:02.462Z,40.78
2024-03-08T06:59:14.092Z,45.22
2024-03-08T07:01:16.970Z,46.80
2024-03-08T07:03:23.594Z,46.80
2024-03-08T07:05:30.115Z,39.65
2024-03-08T07:07:35.429Z,40.80
2024-03-08T07:09:38.404Z,44.65
2024-03-08T07:11:44.885Z,39.75
2024-03-08T07:13:48.412Z,40.72
2024-03-08T07:15:51.219Z,38.85
2024-03-08T07:17:54.558Z,41.10
2024-03-08T07:19:58.717Z,42.85
2024-03-08T07:22:01.580Z,41.63
2024-03-08T07:24:11.199Z,43.65
2024-03-08T07:26:21.456Z,38.85
2024-03-08T07:28:24.019Z,39.95
2024-03-08T07:30:46.132Z,40.13
2024-03-08T07:32:49.742Z,37.05
2024-03-08T07:34:53.145Z,37.20
2024-03-08T07:36:58.363Z,40.58
2024-03-08T07:39:02.131Z,37.63
2024-03-08T07:41:05.954Z,37.50
2024-03-08T07:43:12.730Z,37.50
2024-03-08T07:45:17.928Z,34.05
2024-03-08T07:47:23.586Z,45.53
2024-03-08T07:51:30.683Z,33.42
2024-03-08T07:53:33.330Z,38.58
2024-03-08T07:55:36.940Z,41.95
2024-03-08T07:57:39.585Z,38.92
2024-03-08T07:59:42.198Z,32.50
2024-03-08T08:01:45.617Z,35.47
2024-03-08T08:03:50.204Z,35.65
2024-03-08T08:05:52.793Z,42.33
2024-03-08T08:07:55.572Z,39.05
2024-03-08T08:10:23.733Z,38.17
2024-03-08T08:12:26.916Z,36.65
2024-03-08T08:14:29.270Z,33.60
2024-03-08T08:16:32.012Z,41.65
2024-03-08T08:18:34.976Z,42.28
2024-03-08T08:20:37.615Z,36.17
2024-03-08T08:22:47.398Z,38.00
2024-03-08T08:24:49.763Z,33.13
2024-03-08T08:26:52.465Z,38.03
2024-03-08T08:28:56.269Z,33.80
2024-03-08T08:30:59.043Z,36.88
2024-03-08T08:33:02.374Z,35.72
2024-03-08T08:35:14.170Z,33.65
2024-03-08T08:37:20.004Z,33.65
2024-03-08T08:39:24.525Z,38.53
2024-03-08T08:41:28.487Z,35.40
2024-03-08T08:43:30.986Z,37.75
2024-03-08T08:45:34.656Z,35.80
2024-03-08T08:47:37.649Z,35.30
2024-03-08T08:49:40.695Z,38.25
2024-03-08T08:51:43.550Z,34.67
2024-03-08T08:53:46.947Z,34.40
2024-03-08T08:55:50.156Z,32.42
2024-03-08T08:57:53.910Z,36.60
2024-03-08T08:59:57.049Z,33.30
2024-03-08T09:01:59.918Z,34.50
2024-03-08T09:04:02.890Z,32.67
2024-03-08T09:06:06.152Z,36.92
2024-03-08T09:08:09.940Z,31.85
2024-03-08T09:12:19.116Z,36.30
2024-03-08T09:14:21.923Z,35.67
2024-03-08T09:16:24.358Z,34.90
2024-03-08T09:18:26.937Z,37.85
2024-03-08T09:20:31.127Z,37.03
2024-03-08T09:22:33.716Z,39.67
2024-03-08T09:24:36.341Z,36.33
2024-03-08T09:26:39.530Z,36.15
2024-03-08T09:28:42.130Z,39.97
2024-03-08T09:30:54.048Z,39.65
2024-03-08T09:33:02.216Z,39.25
2024-03-08T09:35:08.452Z,35.83
2024-03-08T09:37:11.293Z,37.13
2024-03-08T09:39:18.525Z,40.50
2024-03-08T09:43:23.562Z,34.55
2024-03-08T09:45:27.398Z,38.53
2024-03-08T09:47:35.358Z,35.15
2024-03-08T09:49:39.115Z,37.45
2024-03-08T09:51:42.102Z,33.60
2024-03-08T09:53:45.438Z,38.63
2024-03-08T09:55:51.096Z,41.65
2024-03-08T09:58:14.599Z,38.45
2024-03-08T10:00:24.800Z,35.17
2024-03-08T10:02:27.984Z,35.60
2024-03-08T10:04:32.414Z,34.00
2024-03-08T10:06:35.194Z,39.97
2024-03-08T10:08:38.134Z,33.40
2024-03-08T10:10:41.306Z,32.10
2024-03-08T10:12:43.666Z,32.90
2024-03-08T10:14:47.931Z,34.88
2024-03-08T10:16:50.729Z,35.33
2024-03-08T10:18:55.181Z,31.17
2024-03-08T10:21:10.239Z,38.75
2024-03-08T10:23:13.176Z,36.28
2024-03-08T10:25:16.135Z,37.70
2024-03-08T10:27:19.342Z,32.63
2024-03-08T10:29:23.075Z,31.67
2024-03-08T10:31:25.893Z,33.40
2024-03-08T10:33:29.739Z,31.80
2024-03-08T10:35:33.326Z,34.67
2024-03-08T10:37:51.592Z,35.55
2024-03-08T10:40:12.567Z,33.60
2024-03-08T10:42:20.432Z,37.20
2024-03-08T10:44:32.523Z,36.85
2024-03-08T10:46:56.757Z,33.67
2024-03-08T10:49:04.276Z,33.45
2024-03-08T10:51:06.812Z,36.90
2024-03-08T10:53:12.936Z,35.03
2024-03-08T10:55:17.723Z,35.13
2024-03-08T10:57:23.112Z,37.20
2024-03-08T10:59:28.712Z,35.33
2024-03-08T11:01:32.143Z,33.88
2024-03-08T11:03:46.913Z,35.88
2024-03-08T11:05:50.226Z,35.47
2024-03-08T11:07:53.337Z,43.45
2024-03-08T11:09:57.908Z,39.53
2024-03-08T11:12:23.426Z,37.42
2024-03-08T11:14:53.346Z,36.85
2024-03-08T11:16:56.055Z,36.88
2024-03-08T11:19:07.188Z,37.17
2024-03-08T11:21:14.308Z,36.53
2024-03-08T11:23:24.670Z,32.25
2024-03-08T11:25:37.887Z,30.05
2024-03-08T11:27:40.745Z,31.27
2024-03-08T11:29:43.750Z,30.35
2024-03-08T11:31:47.653Z,29.08
2024-03-08T11:33:51.077Z,29.92
2024-03-08T11:35:53.702Z,30.02
2024-03-08T11:38:00.305Z,30.75
2024-03-08T11:40:06.150Z,33.90
2024-03-08T11:42:08.653Z,28.73
2024-03-08T11:44:13.352Z,30.88
2024-03-08T11:46:17.582Z,31.05
2024-03-08T11:48:20.152Z,29.95
2024-03-08T11:50:25.147Z,31.83
2024-03-08T11:52:28.272Z,28.67
2024-03-08T11:54:31.486Z,34.58
2024-03-08T11:56:33.913Z,29.85
2024-03-08T11:58:40.045Z,29.10
2024-03-08T12:00:42.802Z,27.77
2024-03-08T12:02:52.359Z,29.13
2024-03-08T12:04:59.328Z,29.77
2024-03-08T12:09:14.393Z,27.48
2024-03-08T12:11:19.626Z,33.65
2024-03-08T12:13:23.192Z,30.58
2024-03-08T12:15:26.386Z,32.42
2024-03-08T12:17:29.767Z,33.53
2024-03-08T12:19:32.383Z,32.90
2024-03-08T12:21:36.082Z,31.88
2024-03-08T12:23:40.921Z,32.95
2024-03-08T12:25:43.940Z,31.88
2024-03-08T12:27:47.415Z,37.85
2024-03-08T12:29:49.957Z,28.98
2024-03-08T12:31:57.104Z,30.02
2024-03-08T12:34:02.165Z,29.27
2024-03-08T12:36:08.579Z,30.27
2024-03-08T12:38:11.110Z,36.70
2024-03-08T12:40:18.223Z,39.92
2024-03-08T12:42:20.943Z,31.42
2024-03-08T12:44:24.033Z,36.38
2024-03-08T12:46:27.978Z,29.30
2024-03-08T12:48:35.891Z,32.47
2024-03-08T12:50:38.484Z,30.60
2024-03-08T12:52:41.234Z,29.50
2024-03-08T12:54:44.309Z,29.95
2024-03-08T12:56:46.704Z,32.72
2024-03-08T12:58:49.336Z,37.08
2024-03-08T13:00:54.014Z,34.78
2024-03-08T13:02:57.329Z,31.38
2024-03-08T13:05:00.472Z,32.05
2024-03-08T13:07:03.175Z,34.47
2024-03-08T13:09:07.094Z,34.47
2024-03-08T13:11:10.416Z,34.88
2024-03-08T13:13:13.986Z,33.30
2024-03-08T13:15:21.907Z,34.40
2024-03-08T13:17:24.879Z,33.40
2024-03-08T13:19:30.066Z,30.33
2024-03-08T13:21:33.276Z,33.88
2024-03-08T13:23:41.566Z,38.95
2024-03-08T13:25:44.108Z,31.40
2024-03-08T13:27:50.375Z,35.67
2024-03-08T13:29:53.391Z,32.55
2024-03-08T13:31:58.193Z,35.70
2024-03-08T13:34:01.010Z,33.47
2024-03-08T13:36:09.828Z,35.28
2024-03-08T13:38:15.127Z,37.88
2024-03-08T13:40:20.328Z,36.38
2024-03-08T13:42:24.815Z,36.22
2024-03-08T13:44:29.308Z,36.92
2024-03-08T13:46:31.865Z,33.13
2024-03-08T13:48:35.352Z,31.15
2024-03-08T13:50:37.832Z,37.10
2024-03-08T13:52:41.381Z,35.65
2024-03-08T13:54:44.346Z,35.92
2024-03-08T13:56:48.035Z,34.47
2024-03-08T13:58:53.166Z,32.55
2024-03-08T14:00:56.804Z,32.30
2024-03-08T14:03:00.425Z,39.53
2024-03-08T14:05:04.209Z,34.88
2024-03-08T14:07:09.562Z,33.53
2024-03-08T14:09:18.390Z,32.33
2024-03-08T14:11:21.088Z,36.15
2024-03-08T14:13:23.678Z,30.92
2024-03-08T14:15:26.608Z,32.85
2024-03-08T14:17:32.671Z,35.70
2024-03-08T14:19:37.968Z,33.03
2024-03-08T14:21:40.966Z,34.47
2024-03-08T14:23:44.571Z,31.13
2024-03-08T14:25:47.959Z,29.85
2024-03-08T14:27:55.640Z,30.70
2024-03-08T14:29:58.581Z,29.85
2024-03-08T14:32:02.161Z,34.10
2024-03-08T14:34:05.349Z,31.40
2024-03-08T14:36:07.986Z,27.67
2024-03-08T14:38:12.064Z,29.77
2024-03-08T14:40:17.045Z,31.27
2024-03-08T14:42:20.672Z,31.30
2024-03-08T14:44:27.520Z,28.13
2024-03-08T14:46:31.093Z,27.73
2024-03-08T14:48:33.861Z,26.80
2024-03-08T14:50:38.637Z,32.83
2024-03-08T14:52:41.844Z,29.27
2024-03-08T14:54:44.958Z,30.65
2024-03-08T14:56:47.843Z,30.48
2024-03-08T14:58:53.850Z,30.73
2024-03-08T15:00:56.915Z,28.17
2024-03-08T15:02:59.812Z,26.92
2024-03-08T15:05:03.445Z,27.17
2024-03-08T15:07:07.371Z,30.15
2024-03-08T15:09:18.563Z,29.63
2024-03-08T15:11:24.967Z,33.05
2024-03-08T15:13:40.389Z,32.83
2024-03-08T15:15:45.204Z,27.50
2024-03-08T15:17:48.665Z,28.50
2024-03-08T15:19:52.064Z,32.92
2024-03-08T15:21:58.025Z,34.55
2024-03-08T15:24:01.448Z,32.28
2024-03-08T15:26:05.286Z,30.88
2024-03-08T15:28:14.550Z,29.25
2024-03-08T15:30:18.237Z,28.63
2024-03-08T15:32:23.629Z,31.27
2024-03-08T15:34:27.519Z,29.98
2024-03-08T15:36:32.292Z,29.25
2024-03-08T15:38:34.525Z,28.20
2024-03-08T15:40:36.849Z,29.95
2024-03-08T15:42:39.280Z,32.08
2024-03-08T15:44:44.977Z,36.15
2024-03-08T15:46:49.593Z,28.33
2024-03-08T15:48:55.624Z,29.23
2024-03-08T15:50:58.670Z,30.85
2024-03-08T15:53:00.950Z,33.30
2024-03-08T15:55:03.734Z,31.48
2024-03-08T15:57:09.850Z,33.50
2024-03-08T15:59:12.354Z,28.67
2024-03-08T16:01:17.903Z,28.17
2024-03-08T16:03:21.891Z,34.63
2024-03-08T16:05:24.416Z,32.67
2024-03-08T16:07:28.138Z,30.60
2024-03-08T16:09:30.856Z,33.40
2024-03-08T16:11:34.603Z,37.08
2024-03-08T16:13:39.636Z,34.20
2024-03-08T16:15:46.719Z,52.80
2024-03-08T16:17:50.470Z,51.42
2024-03-08T16:19:52.816Z,54.13
2024-03-08T16:21:55.402Z,51.03
2024-03-08T16:23:58.394Z,54.10
2024-03-08T16:26:01.007Z,54.90
2024-03-08T16:28:09.528Z,50.58
2024-03-08T16:30:17.116Z,47.45
2024-03-08T16:32:21.733Z,52.75
2024-03-08T16:34:24.735Z,45.63
2024-03-08T16:36:28.661Z,42.58
2024-03-08T16:38:33.758Z,36.95
2024-03-08T16:40:38.400Z,36.70
2024-03-08T16:42:41.382Z,34.20
2024-03-08T16:44:43.838Z,33.90
2024-03-08T16:46:48.021Z,36.05
2024-03-08T16:48:50.917Z,46.55
2024-03-08T16:50:56.063Z,61.60
2024-03-08T16:53:01.180Z,65.80
2024-03-08T16:55:08.180Z,76.13
2024-03-08T16:57:15.823Z,64.20
2024-03-08T16:59:18.263Z,51.75
2024-03-08T17:01:20.720Z,44.25
2024-03-08T17:03:23.183Z,64.07
2024-03-08T17:05:30.326Z,73.32
2024-03-08T17:07:34.671Z,70.82
2024-03-08T17:09:38.792Z,66.65
2024-03-08T17:11:41.493Z,56.60
2024-03-08T17:13:45.537Z,46.97
2024-03-08T17:15:50.484Z,42.75
2024-03-08T17:18:00.738Z,36.75
2024-03-08T17:20:08.169Z,41.40
2024-03-08T17:22:13.146Z,32.40
2024-03-08T17:24:18.598Z,37.63
2024-03-08T17:26:21.286Z,29.75
2024-03-08T17:28:23.999Z,32.42
2024-03-08T17:30:29.305Z,32.30
2024-03-08T17:32:35.269Z,35.88
2024-03-08T17:34:38.857Z,33.72
2024-03-08T17:36:42.053Z,34.70
2024-03-08T17:38:50.279Z,37.97
2024-03-08T17:40:53.175Z,37.72
2024-03-08T17:43:01.317Z,36.55
2024-03-08T17:45:07.224Z,30.98
2024-03-08T17:47:09.831Z,39.20
2024-03-08T17:49:13.176Z,45.53
2024-03-08T17:51:16.264Z,37.90
2024-03-08T17:53:20.306Z,35.30
2024-03-08T17:55:25.586Z,40.97
2024-03-08T17:57:28.837Z,39.45
2024-03-08T17:59:31.559Z,34.47
2024-03-08T18:01:37.319Z,32.63
2024-03-08T18:03:40.031Z,38.97
2024-03-08T18:05:47.114Z,38.45
2024-03-08T18:07:49.862Z,40.67
2024-03-08T18:09:52.613Z,39.05
2024-03-08T18:11:56.294Z,45.58
2024-03-08T18:13:58.942Z,42.50
2024-03-08T18:16:01.657Z,41.97
2024-03-08T18:18:06.428Z,45.28
2024-03-08T18:20:15.741Z,43.28
2024-03-08T18:22:18.517Z,46.15
2024-03-08T18:24:22.193Z,48.20
2024-03-08T18:26:25.865Z,50.63
2024-03-08T18:28:29.838Z,46.22
2024-03-08T18:30:33.828Z,43.75
2024-03-08T18:32:36.294Z,46.47
2024-03-08T18:34:43.609Z,42.63
2024-03-08T18:36:46.906Z,48.38
2024-03-08T18:38:50.366Z,48.42
2024-03-08T18:40:54.041Z,50.30
2024-03-08T18:42:57.504Z,49.30
2024-03-08T18:45:00.526Z,46.80
2024-03-08T18:47:03.069Z,47.38
2024-03-08T18:49:06.567Z,44.40
2024-03-08T18:51:09.234Z,49.40
2024-03-08T18:53:11.951Z,43.80
2024-03-08T18:55:23.007Z,45.03
2024-03-08T18:57:28.332Z,43.42
2024-03-08T18:59:32.301Z,43.85
2024-03-08T19:01:38.350Z,44.28
2024-03-08T19:03:43.005Z,40.40
2024-03-08T19:05:48.166Z,48.30
2024-03-08T19:07:56.226Z,44.05
2024-03-08T19:09:58.995Z,39.92
2024-03-08T19:12:04.836Z,43.53
2024-03-08T19:14:09.769Z,41.55
2024-03-08T19:16:17.514Z,41.85
2024-03-08T19:18:20.403Z,44.90
2024-03-08T19:20:25.863Z,45.65
2024-03-08T19:22:29.983Z,48.30
2024-03-08T19:24:36.577Z,52.50
2024-03-08T19:26:39.121Z,50.10
2024-03-08T19:28:41.893Z,60.33
2024-03-08T19:30:44.834Z,57.25
2024-03-08T19:32:47.820Z,46.15
2024-03-08T19:34:51.497Z,48.45
2024-03-08T19:36:55.030Z,57.63
2024-03-08T19:38:59.662Z,54.95
2024-03-08T19:41:04.239Z,53.88
2024-03-08T19:43:08.557Z,54.92
2024-03-08T19:45:11.755Z,60.20
2024-03-08T19:47:18.004Z,47.45
2024-03-08T19:49:20.983Z,54.92
2024-03-08T19:51:23.858Z,51.55
2024-03-08T19:53:27.225Z,51.83
2024-03-08T19:55:29.974Z,53.92
2024-03-08T19:57:32.813Z,46.20
2024-03-08T19:59:43.356Z,55.95
2024-03-08T20:01:46.734Z,52.92
2024-03-08T20:03:51.766Z,54.25
2024-03-08T20:05:56.917Z,48.95
2024-03-08T20:08:09.695Z,50.75
2024-03-08T20:10:16.841Z,47.65
2024-03-08T20:12:19.824Z,58.20
2024-03-08T20:14:22.914Z,49.28
2024-03-08T20:16:25.822Z,51.17
2024-03-08T20:18:28.707Z,48.83
2024-03-08T20:20:31.906Z,52.30
2024-03-08T20:22:34.684Z,51.25
2024-03-08T20:24:37.412Z,48.00
2024-03-08T20:26:40.463Z,44.92
2024-03-08T20:28:43.807Z,47.42
2024-03-08T20:30:48.579Z,52.60
2024-03-08T20:33:05.719Z,48.25
2024-03-08T20:35:12.105Z,52.35
2024-03-08T20:37:15.203Z,50.13
2024-03-08T20:39:17.621Z,49.92
2024-03-08T20:41:20.253Z,52.17
2024-03-08T20:43:25.340Z,48.63
2024-03-08T20:45:28.494Z,54.42
2024-03-08T20:47:36.935Z,49.60
2024-03-08T20:49:39.926Z,48.65
2024-03-08T20:51:43.158Z,49.92
2024-03-08T20:53:46.234Z,50.20
2024-03-08T20:55:50.389Z,41.15
2024-03-08T20:57:54.542Z,52.90
2024-03-08T20:59:57.532Z,48.83
2024-03-08T21:02:00.896Z,51.03
2024-03-08T21:04:05.466Z,49.47
2024-03-08T21:06:09.154Z,50.92
2024-03-08T21:08:14.352Z,46.20
2024-03-08T21:10:17.204Z,42.47
2024-03-08T21:12:22.466Z,41.28
2024-03-08T21:14:40.827Z,35.97
2024-03-08T21:16:51.680Z,42.88
2024-03-08T21:18:55.454Z,45.08
2024-03-08T21:20:57.840Z,49.78
2024-03-08T21:23:01.325Z,52.72
2024-03-08T21:25:05.626Z,54.40
2024-03-08T21:27:09.473Z,52.80
2024-03-08T21:29:12.375Z,60.38
2024-03-08T21:31:15.496Z,60.38
2024-03-08T21:33:18.445Z,53.83
2024-03-08T21:35:24.119Z,58.95
2024-03-08T21:37:26.867Z,56.30
2024-03-08T21:39:29.376Z,52.50
2024-03-08T21:41:32.233Z,52.60
2024-03-08T21:43:36.414Z,53.67
2024-03-08T21:45:39.470Z,57.65
2024-03-08T21:47:42.451Z,60.40
2024-03-08T21:49:46.445Z,53.90
2024-03-08T21:51:49.239Z,55.13
2024-03-08T21:53:54.598Z,51.25
2024-03-08T21:55:58.782Z,50.20
2024-03-08T21:58:01.487Z,46.97
2024-03-08T22:00:13.983Z,51.45
2024-03-08T22:02:17.080Z,48.03
2024-03-08T22:04:21.738Z,49.45
2024-03-08T22:06:24.453Z,48.78
2024-03-08T22:08:28.258Z,50.40
2024-03-08T22:10:31.160Z,51.10
2024-03-08T22:12:35.574Z,53.42
2024-03-08T22:14:38.728Z,58.05
2024-03-08T22:16:42.154Z,52.78
2024-03-08T22:18:46.578Z,51.53
2024-03-08T22:20:49.160Z,57.00
2024-03-08T22:22:52.436Z,59.95
2024-03-08T22:24:57.546Z,64.95
2024-03-08T22:27:02.315Z,57.58
2024-03-08T22:29:05.508Z,55.92
2024-03-08T22:31:08.693Z,63.65
2024-03-08T22:33:11.543Z,64.00
2024-03-08T22:35:15.508Z,67.43
2024-03-08T22:37:18.342Z,65.88
2024-03-08T22:39:25.247Z,70.93
2024-03-08T22:41:30.302Z,74.78
2024-03-08T22:43:36.525Z,77.32
2024-03-08T22:45:39.778Z,87.05
2024-03-08T22:47:47.582Z,77.70
2024-03-08T22:49:50.711Z,77.38
2024-03-08T22:51:54.030Z,77.43
2024-03-08T22:53:56.257Z,69.50
2024-03-08T22:55:59.313Z,77.88
2024-03-08T22:58:03.092Z,73.88
2024-03-08T23:00:25.384Z,68.78
2024-03-08T23:02:28.838Z,62.40
2024-03-08T23:04:31.827Z,68.80
2024-03-08T23:06:37.423Z,74.18
2024-03-08T23:08:42.381Z,70.07
2024-03-08T23:10:45.019Z,63.40
2024-03-08T23:12:47.649Z,60.63
2024-03-08T23:14:50.251Z,70.97
2024-03-08T23:16:53.252Z,61.45
2024-03-08T23:18:56.916Z,64.32
2024-03-08T23:20:59.626Z,65.72
2024-03-08T23:23:07.309Z,77.22
2024-03-08T23:25:12.698Z,60.10
2024-03-08T23:27:15.401Z,72.45
2024-03-08T23:29:19.184Z,70.90
2024-03-08T23:31:23.142Z,71.93
2024-03-08T23:33:25.806Z,70.93
2024-03-08T23:35:29.076Z,72.95
2024-03-08T23:37:31.366Z,84.70
2024-03-08T23:39:33.782Z,70.50
2024-03-08T23:41:37.028Z,64.65
2024-03-08T23:43:39.292Z,74.40
2024-03-08T23:45:42.466Z,61.38
2024-03-08T23:47:46.676Z,69.25
2024-03-08T23:49:54.089Z,63.13
2024-03-08T23:51:56.700Z,62.83
2024-03-08T23:53:59.116Z,63.25
2024-03-08T23:56:01.861Z,71.07
2024-03-08T23:58:11.856Z,64.60
